createdAt,value
2023-04-29T00:01:32.364Z,2.60
2023-04-29T00:03:59.793Z,2.58
2023-04-29T00:06:28.629Z,2.78
2023-04-29T00:08:56.089Z,2.45
2023-04-29T00:11:23.619Z,2.75
2023-04-29T00:13:50.915Z,2.80
2023-04-29T00:16:18.819Z,2.63
2023-04-29T00:18:46.269Z,2.63
2023-04-29T00:21:13.678Z,2.30
2023-04-29T00:23:41.156Z,1.80
2023-04-29T00:26:08.692Z,1.98
2023-04-29T00:28:36.483Z,1.90
2023-04-29T00:31:04.004Z,1.83
2023-04-29T00:33:31.736Z,1.70
2023-04-29T00:35:59.182Z,1.70
2023-04-29T00:38:26.957Z,1.60
2023-04-29T00:40:55.826Z,1.90
2023-04-29T00:43:23.141Z,1.70
2023-04-29T00:45:51.239Z,1.80
2023-04-29T00:48:18.921Z,1.92
2023-04-29T00:50:46.346Z,2.05
2023-04-29T00:53:14.561Z,1.80
2023-04-29T00:55:43.227Z,1.70
2023-04-29T00:58:12.017Z,2.05
2023-04-29T01:00:39.680Z,2.00
2023-04-29T01:03:08.191Z,1.98
2023-04-29T01:05:35.728Z,2.10
2023-04-29T01:08:06.701Z,1.90
2023-04-29T01:10:42.076Z,1.95
2023-04-29T01:13:18.187Z,1.73
2023-04-29T01:15:59.228Z,1.80
2023-04-29T01:18:32.077Z,1.80
2023-04-29T01:21:00.997Z,2.00
2023-04-29T01:23:29.360Z,1.65
2023-04-29T01:25:58.105Z,2.20
2023-04-29T01:28:43.235Z,1.90
2023-04-29T01:31:32.838Z,1.85
2023-04-29T01:34:13.339Z,2.00
2023-04-29T01:36:49.399Z,1.85
2023-04-29T01:39:31.432Z,2.10
2023-04-29T01:42:15.101Z,2.00
2023-04-29T01:44:44.269Z,1.88
2023-04-29T01:47:15.045Z,2.03
2023-04-29T01:49:47.498Z,2.20
2023-04-29T01:52:14.898Z,1.80
2023-04-29T01:54:49.162Z,2.05
2023-04-29T01:57:17.303Z,1.75
2023-04-29T01:59:46.299Z,1.70
2023-04-29T02:02:33.615Z,2.08
2023-04-29T02:05:11.350Z,1.70
2023-04-29T02:07:44.837Z,1.70
2023-04-29T02:10:12.518Z,1.70
2023-04-29T02:12:42.359Z,1.98
2023-04-29T02:15:10.340Z,1.73
2023-04-29T02:17:37.610Z,1.90
2023-04-29T02:20:05.301Z,1.50
2023-04-29T02:22:32.713Z,1.88
2023-04-29T02:25:00.342Z,1.90
2023-04-29T02:27:27.722Z,1.55
2023-04-29T02:29:55.132Z,1.70
2023-04-29T02:32:22.492Z,1.95
2023-04-29T02:34:50.039Z,1.80
2023-04-29T02:37:17.555Z,1.80
2023-04-29T02:39:47.229Z,1.77
2023-04-29T02:42:14.563Z,2.00
2023-04-29T02:44:42.779Z,1.70
2023-04-29T02:47:10.248Z,2.17
2023-04-29T02:49:40.254Z,2.03
2023-04-29T02:52:07.683Z,1.85
2023-04-29T02:54:36.680Z,1.83
2023-04-29T02:57:04.113Z,2.35
2023-04-29T02:59:31.601Z,2.15
2023-04-29T03:01:58.807Z,2.50
2023-04-29T03:04:26.361Z,2.20
2023-04-29T03:06:57.224Z,2.20
2023-04-29T03:09:26.915Z,2.78
2023-04-29T03:11:54.229Z,2.80
2023-04-29T03:14:21.866Z,2.40
2023-04-29T03:16:50.611Z,2.20
2023-04-29T03:19:18.311Z,3.22
2023-04-29T03:21:45.712Z,2.25
2023-04-29T03:24:13.495Z,2.33
2023-04-29T03:26:43.050Z,2.40
2023-04-29T03:29:10.709Z,3.00
2023-04-29T03:31:38.091Z,2.80
2023-04-29T03:34:05.576Z,2.72
2023-04-29T03:36:36.348Z,3.22
2023-04-29T03:39:07.415Z,3.45
2023-04-29T03:41:34.936Z,3.28
2023-04-29T03:44:02.640Z,3.13
2023-04-29T03:46:30.388Z,3.30
2023-04-29T03:48:57.986Z,3.85
2023-04-29T03:51:26.208Z,3.75
2023-04-29T03:54:00.880Z,4.30
2023-04-29T03:56:28.584Z,4.30
2023-04-29T03:58:56.009Z,4.20
2023-04-29T04:01:26.198Z,3.97
2023-04-29T04:03:53.932Z,4.70
2023-04-29T04:06:21.474Z,4.25
2023-04-29T04:08:49.802Z,3.67
2023-04-29T04:11:21.315Z,4.70
2023-04-29T04:13:55.151Z,3.90
2023-04-29T04:16:22.689Z,4.93
2023-04-29T04:18:49.955Z,4.55
2023-04-29T04:21:17.424Z,3.90
2023-04-29T04:23:49.944Z,3.85
2023-04-29T04:26:21.844Z,4.63
2023-04-29T04:28:59.614Z,5.10
2023-04-29T04:31:34.598Z,4.13
2023-04-29T04:34:02.379Z,5.35
2023-04-29T04:36:32.765Z,5.00
2023-04-29T04:39:00.944Z,5.13
2023-04-29T04:41:31.690Z,4.93
2023-04-29T04:43:59.608Z,4.53
2023-04-29T04:46:28.367Z,4.60
2023-04-29T04:49:03.921Z,4.95
2023-04-29T04:51:33.690Z,5.03
2023-04-29T04:54:01.210Z,4.65
2023-04-29T04:56:30.898Z,5.00
2023-04-29T04:58:58.173Z,4.18
2023-04-29T05:01:25.657Z,4.00
2023-04-29T05:03:53.566Z,4.03
2023-04-29T05:06:21.215Z,3.70
2023-04-29T05:08:49.766Z,3.45
2023-04-29T05:11:18.819Z,3.40
2023-04-29T05:13:53.008Z,3.70
2023-04-29T05:16:20.722Z,3.10
2023-04-29T05:18:49.071Z,3.50
2023-04-29T05:21:17.872Z,3.50
2023-04-29T05:23:46.296Z,3.55
2023-04-29T05:26:13.753Z,3.85
2023-04-29T05:28:41.461Z,3.65
2023-04-29T05:31:09.952Z,3.83
2023-04-29T05:33:37.981Z,4.10
2023-04-29T05:36:06.809Z,3.45
2023-04-29T05:38:34.411Z,3.65
2023-04-29T05:41:05.157Z,4.03
2023-04-29T05:43:33.100Z,3.63
2023-04-29T05:46:01.710Z,3.78
2023-04-29T05:48:30.008Z,3.75
2023-04-29T05:50:57.968Z,3.90
2023-04-29T05:53:25.784Z,2.70
2023-04-29T05:55:53.600Z,2.97
2023-04-29T05:58:22.195Z,3.58
2023-04-29T06:00:50.587Z,3.45
2023-04-29T06:03:22.659Z,3.97
2023-04-29T06:05:58.807Z,2.88
2023-04-29T06:08:28.222Z,3.10
2023-04-29T06:11:05.575Z,3.55
2023-04-29T06:13:33.521Z,3.58
2023-04-29T06:16:00.919Z,3.08
2023-04-29T06:18:32.884Z,3.60
2023-04-29T06:21:00.652Z,3.35
2023-04-29T06:23:27.967Z,3.67
2023-04-29T06:25:56.517Z,3.65
2023-04-29T06:28:23.848Z,3.40
2023-04-29T06:30:51.352Z,4.10
2023-04-29T06:33:19.929Z,4.18
2023-04-29T06:35:47.551Z,4.22
2023-04-29T06:38:16.401Z,4.45
2023-04-29T06:40:45.406Z,4.35
2023-04-29T06:43:32.542Z,4.97
2023-04-29T06:46:01.757Z,4.85
2023-04-29T06:48:36.202Z,4.97
2023-04-29T06:51:05.091Z,5.32
2023-04-29T06:53:36.550Z,5.55
2023-04-29T06:56:03.990Z,5.50
2023-04-29T06:58:31.338Z,3.72
2023-04-29T07:00:58.733Z,4.65
2023-04-29T07:03:26.163Z,5.47
2023-04-29T07:05:55.063Z,5.15
2023-04-29T07:08:24.128Z,4.57
2023-04-29T07:10:56.080Z,4.82
2023-04-29T07:13:25.258Z,4.15
2023-04-29T07:15:52.548Z,3.83
2023-04-29T07:18:20.271Z,4.40
2023-04-29T07:20:48.308Z,3.97
2023-04-29T07:23:15.916Z,4.35
2023-04-29T07:25:43.271Z,4.57
2023-04-29T07:28:10.670Z,5.53
2023-04-29T07:30:38.019Z,5.65
2023-04-29T07:33:05.682Z,6.47
2023-04-29T07:35:33.357Z,5.82
2023-04-29T07:38:01.314Z,5.53
2023-04-29T07:40:31.324Z,4.50
2023-04-29T07:42:58.977Z,6.65
2023-04-29T07:45:26.313Z,5.55
2023-04-29T07:47:53.834Z,6.85
2023-04-29T07:50:21.345Z,5.97
2023-04-29T07:52:48.666Z,10.85
2023-04-29T07:55:18.145Z,6.20
2023-04-29T07:57:45.615Z,6.30
2023-04-29T08:00:13.289Z,6.40
2023-04-29T08:02:43.410Z,6.97
2023-04-29T08:05:14.109Z,5.82
2023-04-29T08:07:41.774Z,6.95
2023-04-29T08:10:09.806Z,6.57
2023-04-29T08:12:38.266Z,7.00
2023-04-29T08:15:07.771Z,6.78
2023-04-29T08:17:37.432Z,5.57
2023-04-29T08:20:05.268Z,6.28
2023-04-29T08:22:32.816Z,5.75
2023-04-29T08:25:00.263Z,10.88
2023-04-29T08:27:27.695Z,8.23
2023-04-29T08:29:56.204Z,6.30
2023-04-29T08:32:23.778Z,7.50
2023-04-29T08:34:51.682Z,7.75
2023-04-29T08:37:20.789Z,8.10
2023-04-29T08:39:48.215Z,8.45
2023-04-29T08:42:16.794Z,6.40
2023-04-29T08:44:44.658Z,6.80
2023-04-29T08:47:14.308Z,9.05
2023-04-29T08:49:42.456Z,14.50
2023-04-29T08:52:09.825Z,12.77
2023-04-29T08:54:37.204Z,16.50
2023-04-29T08:57:05.721Z,6.82
2023-04-29T08:59:33.265Z,12.27
2023-04-29T09:02:01.184Z,8.52
2023-04-29T09:04:42.093Z,7.97
2023-04-29T09:07:13.006Z,7.25
2023-04-29T09:09:42.138Z,6.25
2023-04-29T09:12:09.542Z,7.15
2023-04-29T09:14:37.124Z,7.15
2023-04-29T09:17:04.444Z,6.35
2023-04-29T09:19:34.247Z,6.97
2023-04-29T09:22:03.515Z,7.00
2023-04-29T09:24:32.093Z,7.00
2023-04-29T09:27:00.661Z,7.55
2023-04-29T09:29:28.088Z,6.65
2023-04-29T09:31:56.484Z,6.45
2023-04-29T09:34:26.894Z,5.50
2023-04-29T09:36:59.184Z,6.35
2023-04-29T09:39:26.703Z,6.57
2023-04-29T09:42:02.932Z,5.97
2023-04-29T09:44:34.641Z,6.38
2023-04-29T09:47:05.241Z,5.57
2023-04-29T09:49:37.496Z,6.00
2023-04-29T09:52:07.457Z,5.95
2023-04-29T09:54:36.795Z,6.38
2023-04-29T09:57:06.166Z,8.32
2023-04-29T09:59:36.434Z,6.50
2023-04-29T10:02:09.876Z,6.65
2023-04-29T10:07:09.469Z,6.45
2023-04-29T10:09:40.376Z,7.43
2023-04-29T10:12:08.657Z,7.22
2023-04-29T10:14:45.716Z,6.90
2023-04-29T10:17:21.507Z,9.05
2023-04-29T10:19:59.693Z,9.77
2023-04-29T10:22:34.031Z,9.25
2023-04-29T10:25:03.760Z,8.50
2023-04-29T10:27:32.675Z,9.18
2023-04-29T10:30:02.600Z,7.90
2023-04-29T10:32:39.937Z,7.85
2023-04-29T10:35:20.349Z,7.65
2023-04-29T10:37:49.716Z,7.75
2023-04-29T10:40:31.626Z,8.15
2023-04-29T10:42:59.751Z,8.20
2023-04-29T10:45:31.322Z,8.38
2023-04-29T10:48:01.864Z,6.57
2023-04-29T10:50:30.261Z,7.70
2023-04-29T10:52:58.871Z,9.50
2023-04-29T10:55:26.519Z,12.20
2023-04-29T10:57:57.422Z,8.88
2023-04-29T11:00:27.373Z,7.15
2023-04-29T11:02:55.770Z,6.57
2023-04-29T11:05:27.856Z,6.65
2023-04-29T11:08:13.222Z,5.55
2023-04-29T11:10:43.058Z,7.18
2023-04-29T11:13:13.858Z,6.47
2023-04-29T11:15:41.288Z,6.53
2023-04-29T11:18:11.884Z,7.15
2023-04-29T11:20:42.517Z,5.68
2023-04-29T11:23:09.895Z,6.70
2023-04-29T11:25:39.584Z,6.50
2023-04-29T11:28:08.301Z,6.15
2023-04-29T11:30:37.229Z,6.38
2023-04-29T11:33:04.642Z,5.90
2023-04-29T11:35:32.244Z,6.03
2023-04-29T11:38:00.900Z,6.88
2023-04-29T11:40:28.420Z,6.18
2023-04-29T11:42:55.741Z,5.13
2023-04-29T11:45:23.073Z,4.70
2023-04-29T11:47:51.248Z,5.30
2023-04-29T11:50:20.963Z,4.03
2023-04-29T11:52:49.661Z,5.88
2023-04-29T11:55:17.219Z,3.95
2023-04-29T11:57:44.642Z,3.83
2023-04-29T12:00:13.859Z,4.10
2023-04-29T12:02:47.031Z,4.15
2023-04-29T12:05:17.371Z,4.20
2023-04-29T12:07:45.546Z,4.55
2023-04-29T12:10:13.350Z,4.45
2023-04-29T12:12:43.172Z,3.58
2023-04-29T12:15:11.188Z,4.00
2023-04-29T12:17:39.702Z,4.00
2023-04-29T12:20:10.882Z,3.28
2023-04-29T12:22:38.694Z,3.45
2023-04-29T12:25:08.092Z,3.00
2023-04-29T12:27:37.212Z,3.90
2023-04-29T12:30:09.948Z,3.75
2023-04-29T12:32:38.532Z,3.45
2023-04-29T12:35:06.304Z,3.83
2023-04-29T12:37:35.561Z,4.00
2023-04-29T12:40:02.843Z,3.30
2023-04-29T12:42:33.113Z,4.13
2023-04-29T12:45:00.598Z,4.20
2023-04-29T12:47:34.985Z,3.10
2023-04-29T12:50:03.105Z,2.60
2023-04-29T12:52:30.457Z,3.25
2023-04-29T12:54:58.307Z,3.30
2023-04-29T12:57:26.563Z,3.40
2023-04-29T12:59:54.006Z,3.28
2023-04-29T13:02:21.447Z,4.18
2023-04-29T13:04:49.112Z,2.90
2023-04-29T13:07:16.526Z,3.22
2023-04-29T13:09:43.857Z,2.80
2023-04-29T13:12:11.097Z,3.00
2023-04-29T13:14:38.611Z,3.17
2023-04-29T13:17:06.521Z,2.70
2023-04-29T13:19:49.636Z,2.90
2023-04-29T13:22:19.080Z,2.58
2023-04-29T13:24:47.011Z,3.08
2023-04-29T13:27:14.601Z,2.67
2023-04-29T13:29:41.858Z,2.30
2023-04-29T13:32:09.230Z,2.60
2023-04-29T13:34:36.818Z,2.75
2023-04-29T13:37:04.029Z,4.03
2023-04-29T13:39:31.702Z,6.45
2023-04-29T13:41:59.823Z,3.70
2023-04-29T13:44:34.395Z,2.70
2023-04-29T13:47:13.602Z,2.53
2023-04-29T13:53:09.970Z,2.83
2023-04-29T13:55:44.014Z,2.30
2023-04-29T14:05:25.892Z,2.80
2023-04-29T14:07:53.141Z,2.30
2023-04-29T14:10:20.679Z,2.00
2023-04-29T14:12:48.864Z,2.40
2023-04-29T14:15:17.024Z,1.90
2023-04-29T14:17:44.955Z,1.92
2023-04-29T14:20:12.788Z,2.38
2023-04-29T14:22:39.904Z,9.52
2023-04-29T14:25:08.497Z,10.43
2023-04-29T14:27:36.946Z,3.00
2023-04-29T14:30:05.036Z,3.67
2023-04-29T14:32:32.240Z,4.43
2023-04-29T14:34:59.527Z,2.83
2023-04-29T14:37:26.982Z,18.50
2023-04-29T14:39:54.433Z,2.58
2023-04-29T14:42:21.611Z,2.10
2023-04-29T14:44:48.762Z,2.10
2023-04-29T14:47:15.903Z,2.42
2023-04-29T14:49:43.275Z,2.40
2023-04-29T14:52:10.512Z,2.20
2023-04-29T14:54:37.646Z,2.08
2023-04-29T14:57:04.920Z,1.98
2023-04-29T14:59:32.287Z,2.00
2023-04-29T15:02:03.573Z,1.90
2023-04-29T15:04:30.992Z,2.05
2023-04-29T15:06:58.500Z,2.00
2023-04-29T15:09:26.845Z,2.10
2023-04-29T15:11:54.074Z,2.00
2023-04-29T15:14:21.368Z,2.13
2023-04-29T15:16:49.113Z,2.03
2023-04-29T15:19:16.938Z,1.88
2023-04-29T15:21:44.042Z,2.22
2023-04-29T15:24:12.132Z,1.80
2023-04-29T15:26:39.408Z,2.35
2023-04-29T15:29:06.645Z,2.42
2023-04-29T15:31:33.938Z,2.00
2023-04-29T15:34:01.304Z,2.05
2023-04-29T15:36:30.349Z,2.10
2023-04-29T15:38:58.236Z,2.30
2023-04-29T15:41:26.253Z,2.00
2023-04-29T15:43:54.789Z,1.85
2023-04-29T15:46:22.134Z,2.20
2023-04-29T15:48:49.579Z,2.10
2023-04-29T15:51:16.748Z,1.90
2023-04-29T15:53:44.712Z,2.30
2023-04-29T15:56:12.224Z,2.45
2023-04-29T15:58:39.476Z,2.30
2023-04-29T16:01:06.737Z,2.17
2023-04-29T16:03:34.467Z,2.38
2023-04-29T16:06:01.741Z,2.80
2023-04-29T16:08:29.033Z,2.70
2023-04-29T16:10:56.278Z,2.80
2023-04-29T16:13:23.516Z,2.50
2023-04-29T16:15:50.698Z,2.80
2023-04-29T16:18:18.076Z,2.70
2023-04-29T16:20:45.581Z,2.72
2023-04-29T16:23:12.860Z,2.50
2023-04-29T16:25:42.007Z,3.10
2023-04-29T16:28:09.142Z,3.00
2023-04-29T16:30:36.790Z,3.30
2023-04-29T16:33:04.385Z,3.17
2023-04-29T16:35:31.767Z,3.10
2023-04-29T16:37:59.182Z,3.20
2023-04-29T16:40:27.916Z,2.90
2023-04-29T16:42:56.962Z,3.50
2023-04-29T16:45:25.484Z,3.60
2023-04-29T16:47:53.326Z,3.53
2023-04-29T16:50:20.516Z,3.63
2023-04-29T16:52:47.784Z,3.70
2023-04-29T16:55:15.076Z,3.30
2023-04-29T16:57:42.415Z,3.83
2023-04-29T17:00:11.218Z,4.03
2023-04-29T17:02:40.556Z,4.65
2023-04-29T17:05:09.151Z,4.30
2023-04-29T17:07:36.512Z,4.38
2023-04-29T17:10:05.117Z,4.40
2023-04-29T17:12:33.241Z,4.80
2023-04-29T17:15:00.586Z,4.97
2023-04-29T17:17:28.041Z,4.65
2023-04-29T17:19:55.784Z,4.47
2023-04-29T17:22:23.518Z,4.55
2023-04-29T17:24:51.360Z,4.38
2023-04-29T17:27:18.614Z,5.07
2023-04-29T17:29:46.264Z,4.40
2023-04-29T17:32:17.334Z,4.10
2023-04-29T17:34:44.664Z,4.57
2023-04-29T17:37:11.884Z,4.45
2023-04-29T17:39:39.235Z,4.00
2023-04-29T17:42:06.827Z,4.15
2023-04-29T17:44:34.148Z,4.03
2023-04-29T17:47:01.348Z,3.90
2023-04-29T17:49:28.538Z,3.92
2023-04-29T17:51:55.801Z,3.97
2023-04-29T17:54:23.160Z,4.00
2023-04-29T17:56:50.279Z,4.15
2023-04-29T17:59:17.497Z,3.97
2023-04-29T18:01:44.850Z,4.10
2023-04-29T18:04:12.586Z,4.07
2023-04-29T18:06:40.210Z,4.05
2023-04-29T18:09:07.644Z,3.67
2023-04-29T18:11:34.760Z,4.10
2023-04-29T18:14:02.008Z,3.53
2023-04-29T18:16:30.022Z,3.80
2023-04-29T18:18:57.387Z,3.95
2023-04-29T18:21:27.506Z,3.83
2023-04-29T18:23:56.241Z,3.88
2023-04-29T18:26:23.923Z,3.38
2023-04-29T18:28:51.327Z,3.30
2023-04-29T18:31:20.186Z,3.53
2023-04-29T18:33:47.347Z,3.30
2023-04-29T18:36:14.715Z,3.30
2023-04-29T18:38:42.065Z,3.58
2023-04-29T18:41:09.358Z,3.72
2023-04-29T18:43:36.676Z,3.92
2023-04-29T18:46:04.084Z,3.17
2023-04-29T18:48:31.503Z,3.75
2023-04-29T18:51:00.461Z,3.20
2023-04-29T18:53:27.676Z,3.30
2023-04-29T18:55:54.911Z,4.13
2023-04-29T18:58:22.352Z,3.67
2023-04-29T19:00:49.573Z,3.72
2023-04-29T19:03:16.818Z,3.63
2023-04-29T19:05:44.503Z,3.63
2023-04-29T19:08:11.630Z,3.13
2023-04-29T19:10:38.864Z,3.20
2023-04-29T19:13:06.218Z,3.20
2023-04-29T19:15:33.602Z,3.15
2023-04-29T19:18:00.819Z,3.42
2023-04-29T19:20:28.233Z,3.45
2023-04-29T19:22:55.464Z,3.60
2023-04-29T19:25:25.946Z,3.58
2023-04-29T19:27:53.592Z,3.60
2023-04-29T19:30:20.892Z,3.70
2023-04-29T19:32:48.974Z,3.50
2023-04-29T19:35:16.337Z,3.38
2023-04-29T19:37:44.462Z,3.10
2023-04-29T19:40:12.158Z,3.53
2023-04-29T19:42:40.072Z,3.67
2023-04-29T19:45:08.457Z,3.50
2023-04-29T19:47:36.422Z,3.45
2023-04-29T19:50:04.786Z,3.97
2023-04-29T19:52:32.158Z,3.45
2023-04-29T19:54:59.440Z,3.80
2023-04-29T19:57:27.843Z,3.80
2023-04-29T19:59:55.367Z,3.75
2023-04-29T20:02:22.861Z,3.50
2023-04-29T20:04:50.153Z,4.05
2023-04-29T20:07:17.258Z,4.07
2023-04-29T20:09:45.689Z,4.10
2023-04-29T20:12:12.978Z,3.97
2023-04-29T20:14:40.214Z,4.00
2023-04-29T20:17:07.765Z,4.00
2023-04-29T20:19:35.063Z,4.03
2023-04-29T20:22:02.188Z,3.97
2023-04-29T20:24:29.568Z,4.07
2023-04-29T20:26:56.853Z,3.80
2023-04-29T20:29:24.948Z,4.53
2023-04-29T20:31:52.195Z,4.05
2023-04-29T20:34:19.534Z,4.13
2023-04-29T20:36:46.847Z,3.40
2023-04-29T20:39:14.393Z,3.25
2023-04-29T20:41:41.818Z,3.60
2023-04-29T20:44:09.146Z,3.38
2023-04-29T20:46:36.447Z,3.22
2023-04-29T20:49:04.996Z,3.50
2023-04-29T20:51:32.911Z,3.35
2023-04-29T20:54:00.238Z,3.35
2023-04-29T20:56:27.960Z,3.20
2023-04-29T20:58:57.569Z,3.60
2023-04-29T21:01:24.953Z,3.40
2023-04-29T21:03:52.394Z,3.00
2023-04-29T21:06:19.668Z,3.30
2023-04-29T21:08:47.074Z,3.28
2023-04-29T21:11:14.332Z,3.42
2023-04-29T21:13:41.560Z,3.28
2023-04-29T21:16:09.769Z,3.70
2023-04-29T21:18:37.155Z,3.72
2023-04-29T21:21:04.440Z,3.60
2023-04-29T21:23:31.627Z,4.80
2023-04-29T21:25:58.787Z,4.25
2023-04-29T21:28:26.081Z,3.90
2023-04-29T21:30:53.428Z,3.95
2023-04-29T21:33:21.014Z,3.55
2023-04-29T21:35:51.439Z,3.17
2023-04-29T21:38:19.133Z,3.45
2023-04-29T21:40:48.123Z,4.05
2023-04-29T21:43:16.928Z,4.03
2023-04-29T21:45:45.610Z,3.95
2023-04-29T21:48:15.986Z,4.40
2023-04-29T21:50:44.058Z,3.90
2023-04-29T21:53:13.784Z,3.47
2023-04-29T21:55:42.886Z,4.35
2023-04-29T21:58:11.033Z,4.70
2023-04-29T22:00:40.793Z,5.10
2023-04-29T22:03:09.435Z,4.50
2023-04-29T22:05:37.835Z,4.03
2023-04-29T22:08:07.495Z,4.45
2023-04-29T22:10:35.035Z,4.28
2023-04-29T22:13:02.222Z,4.30
2023-04-29T22:15:29.897Z,4.15
2023-04-29T22:17:57.916Z,4.10
2023-04-29T22:20:25.867Z,4.75
2023-04-29T22:22:53.067Z,5.05
2023-04-29T22:25:22.037Z,6.18
2023-04-29T22:27:50.380Z,5.35
2023-04-29T22:30:18.140Z,5.70
2023-04-29T22:32:45.708Z,5.50
2023-04-29T22:35:13.060Z,5.72
2023-04-29T22:37:41.213Z,5.60
2023-04-29T22:40:09.486Z,6.32
2023-04-29T22:42:36.689Z,5.10
2023-04-29T22:45:04.296Z,5.50
2023-04-29T22:47:31.610Z,6.03
2023-04-29T22:49:58.859Z,5.75
2023-04-29T22:52:27.472Z,5.20
2023-04-29T22:54:54.800Z,5.28
2023-04-29T22:57:21.893Z,5.20
2023-04-29T22:59:49.331Z,5.90
2023-04-29T23:02:16.521Z,5.20
2023-04-29T23:04:43.709Z,5.68
2023-04-29T23:07:10.970Z,5.55
2023-04-29T23:09:38.299Z,6.32
2023-04-29T23:12:05.550Z,6.00
2023-04-29T23:14:32.800Z,6.13
2023-04-29T23:16:59.945Z,6.20
2023-04-29T23:19:27.185Z,6.65
2023-04-29T23:21:54.281Z,7.85
2023-04-29T23:24:21.467Z,6.70
2023-04-29T23:26:49.542Z,6.70
2023-04-29T23:29:16.909Z,5.90
2023-04-29T23:31:44.755Z,6.65
2023-04-29T23:34:13.237Z,7.00
2023-04-29T23:36:40.537Z,5.80
2023-04-29T23:39:07.840Z,6.50
2023-04-29T23:41:35.070Z,7.03
2023-04-29T23:44:02.563Z,6.13
2023-04-29T23:46:30.974Z,7.07
2023-04-29T23:48:58.249Z,6.28
2023-04-29T23:51:26.382Z,7.38
2023-04-29T23:53:53.734Z,6.80
2023-04-29T23:56:20.827Z,6.38
2023-04-29T23:58:48.095Z,8.85
